Time;durP1;ratioP1;P1;durP2;ratioP2;P2;SDS_P1;SDS_P2;PMS_P1;PMS_P2;Temp;Humidity;BMP_temperature;BMP_pressure;BME280_temperature;BME280_humidity;BME280_pressure;Samples;Min_cycle;Max_cycle;Signal;HPM_P1;HPM_P2
2023/02/22 00:02:27;;;;;;;;;;;4.40;14.90;;;;;;5075603;28;20338;-78
2023/02/22 00:07:56;;;;;;;;;;;4.30;15.40;;;;;;5075955;28;19935;-78
2023/02/22 00:13:27;;;;;;;;;;;4.30;12.90;;;;;;5055814;28;19959;-78
2023/02/22 00:16:22;;;;;;;;;;;4.30;10.70;;;;;;5055643;28;19931;-78
2023/02/22 00:21:52;;;;;;;;;;;4.20;14.50;;;;;;5075589;28;19958;-78
2023/02/22 00:27:20;;;;;;;;;;;4.20;17.50;;;;;;5080348;28;19915;-78
2023/02/22 00:30:10;;;;;;;;;;;4.10;17.30;;;;;;5075271;28;19908;-78
2023/02/22 00:36:04;;;;;;;;;;;4.10;20.10;;;;;;5075274;28;19951;-75
2023/02/22 00:38:58;;;;;;;;;;;4.10;17.20;;;;;;5075470;28;19904;-75
2023/02/22 00:41:41;;;;;;;;;;;4.20;17.70;;;;;;5064745;28;19908;-75
2023/02/22 00:44:10;;;;;;;;;;;4.10;16.90;;;;;;5075155;28;19904;-75
2023/02/22 00:46:36;;;;;;;;;;;4.10;17.60;;;;;;5075028;28;20271;-75
2023/02/22 00:52:04;;;;;;;;;;;4.10;24.20;;;;;;5063927;28;19985;-78
2023/02/22 00:57:33;;;;;;;;;;;4.10;24.10;;;;;;5074402;28;20527;-78
2023/02/22 01:03:03;;;;;;;;;;;4.00;22.90;;;;;;5074314;28;19965;-78
2023/02/22 01:08:52;;;;;;;;;;;4.00;20.70;;;;;;5074316;28;19911;-78
2023/02/22 01:14:22;;;;;;;;;;;3.90;19.30;;;;;;5059410;28;19915;-78
2023/02/22 01:23:11;;;;;;;;;;;3.90;19.30;;;;;;5074544;28;19916;-75
2023/02/22 01:25:42;;;;;;;;;;;3.90;19.60;;;;;;5074543;28;19936;-75
2023/02/22 01:28:08;;;;;;;;;;;3.80;19.30;;;;;;5074212;28;19912;-76
2023/02/22 01:30:40;;;;;;;;;;;3.80;18.10;;;;;;5062346;28;19913;-76
2023/02/22 01:33:17;;;;;;;;;;;3.80;18.20;;;;;;5043030;28;20264;-75
2023/02/22 01:35:53;;;;;;;;;;;3.70;17.00;;;;;;5081685;28;19911;-76
2023/02/22 01:38:18;;;;;;;;;;;3.70;15.90;;;;;;5074258;28;19997;-75
2023/02/22 01:40:53;;;;;;;;;;;3.70;15.60;;;;;;5066496;28;19971;-75
2023/02/22 01:43:40;;;;;;;;;;;3.70;14.60;;;;;;5094307;28;19904;-75
2023/02/22 01:46:20;;;;;;;;;;;3.60;14.00;;;;;;5073753;28;19908;-75
2023/02/22 01:49:09;;;;;;;;;;;3.60;13.90;;;;;;5074112;28;19904;-75
2023/02/22 01:54:42;;;;;;;;;;;3.50;14.80;;;;;;5073566;28;19912;-78
2023/02/22 02:00:13;;;;;;;;;;;3.60;18.80;;;;;;5069646;28;20338;-78
2023/02/22 02:05:58;;;;;;;;;;;3.50;21.30;;;;;;5069441;28;19987;-78
2023/02/22 02:08:52;;;;;;;;;;;3.60;22.50;;;;;;5073661;28;20399;-75
2023/02/22 02:17:52;;;;;;;;;;;3.60;23.40;;;;;;5064553;28;20003;-76
2023/02/22 02:23:55;;;;;;;;;;;3.50;23.70;;;;;;5082794;28;19977;-78
2023/02/22 02:32:46;;;;;;;;;;;3.50;25.00;;;;;;5073527;28;20278;-78
2023/02/22 02:35:43;;;;;;;;;;;3.50;24.40;;;;;;5066454;28;19908;-78
2023/02/22 02:41:46;;;;;;;;;;;3.40;24.20;;;;;;4978939;28;20360;-75
2023/02/22 02:44:27;;;;;;;;;;;3.50;26.80;;;;;;4974314;28;19909;-75
2023/02/22 02:53:34;;;;;;;;;;;3.40;24.80;;;;;;4996040;28;20301;-75
2023/02/22 02:56:11;;;;;;;;;;;3.30;24.30;;;;;;4976058;28;19910;-75
2023/02/22 03:04:58;;;;;;;;;;;3.20;20.70;;;;;;4981114;28;20049;-75
2023/02/22 03:10:42;;;;;;;;;;;3.20;24.40;;;;;;4990151;28;19964;-78
2023/02/22 03:16:34;;;;;;;;;;;3.30;26.00;;;;;;5069162;28;19931;-78
2023/02/22 03:22:10;;;;;;;;;;;3.20;22.40;;;;;;5076464;28;19911;-75
2023/02/22 03:24:54;;;;;;;;;;;3.20;20.60;;;;;;5076423;28;19994;-75
2023/02/22 03:27:20;;;;;;;;;;;3.20;21.10;;;;;;5076712;28;19904;-75
2023/02/22 03:29:49;;;;;;;;;;;3.30;23.40;;;;;;5076550;28;19920;-75
2023/02/22 03:32:32;;;;;;;;;;;3.20;25.50;;;;;;5075959;28;19908;-75
2023/02/22 03:35:09;;;;;;;;;;;3.20;27.30;;;;;;5058958;28;19908;-75
2023/02/22 03:47:17;;;;;;;;;;;3.30;37.20;;;;;;5060650;28;19932;-78
2023/02/22 03:52:46;;;;;;;;;;;3.30;37.30;;;;;;5070652;28;19999;-75
2023/02/22 03:55:23;;;;;;;;;;;3.30;27.60;;;;;;5074759;28;19954;-75
2023/02/22 03:57:50;;;;;;;;;;;3.30;25.80;;;;;;5069008;28;20015;-75
2023/02/22 04:00:19;;;;;;;;;;;3.30;27.60;;;;;;5071940;28;19954;-75
2023/02/22 04:02:47;;;;;;;;;;;3.30;37.20;;;;;;5066930;28;19952;-75
2023/02/22 04:08:15;;;;;;;;;;;3.30;37.20;;;;;;5075848;28;20378;-78
2023/02/22 04:13:44;;;;;;;;;;;3.30;37.20;;;;;;5057889;28;19947;-78
2023/02/22 04:16:28;;;;;;;;;;;3.20;28.50;;;;;;5055283;28;20356;-78
2023/02/22 04:18:58;;;;;;;;;;;3.20;24.60;;;;;;5062641;28;19908;-78
2023/02/22 04:24:27;;;;;;;;;;;3.10;21.90;;;;;;5075795;28;20322;-76
2023/02/22 04:27:05;;;;;;;;;;;3.10;20.30;;;;;;5075107;28;19904;-75
2023/02/22 04:29:31;;;;;;;;;;;3.10;18.60;;;;;;5067071;28;20395;-75
2023/02/22 04:31:59;;;;;;;;;;;3.10;18.20;;;;;;5062082;28;19909;-75
2023/02/22 04:34:29;;;;;;;;;;;3.00;17.20;;;;;;5058532;28;19905;-75
2023/02/22 04:37:05;;;;;;;;;;;3.00;19.00;;;;;;5075451;28;19916;-75
2023/02/22 04:42:34;;;;;;;;;;;3.00;28.70;;;;;;5074794;28;19999;-78
2023/02/22 04:48:05;;;;;;;;;;;2.90;21.40;;;;;;5074436;28;19989;-79
2023/02/22 04:53:34;;;;;;;;;;;2.90;24.50;;;;;;5066105;28;20474;-75
2023/02/22 04:56:05;;;;;;;;;;;2.90;23.80;;;;;;5074681;28;19904;-75
2023/02/22 04:58:41;;;;;;;;;;;2.80;22.30;;;;;;5075161;28;19926;-75
2023/02/22 05:01:17;;;;;;;;;;;2.80;26.40;;;;;;5073708;28;19905;-76
2023/02/22 05:04:17;;;;;;;;;;;2.80;21.20;;;;;;5073584;28;19904;-75
2023/02/22 05:06:47;;;;;;;;;;;2.70;19.60;;;;;;5064974;28;19904;-75
2023/02/22 05:09:17;;;;;;;;;;;2.70;20.20;;;;;;5056177;28;20283;-75
2023/02/22 05:18:11;;;;;;;;;;;2.70;36.60;;;;;;5062613;28;20763;-85
2023/02/22 05:26:43;;;;;;;;;;;2.60;36.60;;;;;;5070932;28;19915;-84
2023/02/22 05:29:09;;;;;;;;;;;2.60;36.80;;;;;;5053101;28;19912;-86
2023/02/22 05:37:41;;;;;;;;;;;2.50;23.90;;;;;;5071477;28;20283;-85
2023/02/22 05:40:19;;;;;;;;;;;2.50;21.70;;;;;;5056668;28;19908;-89
2023/02/22 05:45:48;;;;;;;;;;;2.40;21.40;;;;;;5069212;28;19951;-89
2023/02/22 05:48:29;;;;;;;;;;;2.30;21.40;;;;;;5055059;28;19908;-89
2023/02/22 05:53:58;;;;;;;;;;;2.40;28.10;;;;;;5066379;28;19916;-85
2023/02/22 05:56:59;;;;;;;;;;;2.40;36.20;;;;;;5056295;28;19912;-85
2023/02/22 06:08:59;;;;;;;;;;;2.40;36.40;;;;;;5070538;28;19912;-88
2023/02/22 06:11:29;;;;;;;;;;;2.40;36.50;;;;;;5047291;28;19905;-89
2023/02/22 06:16:59;;;;;;;;;;;2.40;36.70;;;;;;5053561;28;19975;-78
2023/02/22 06:22:28;;;;;;;;;;;2.50;36.50;;;;;;5091665;28;19958;-77
2023/02/22 06:24:53;;;;;;;;;;;2.50;36.40;;;;;;5084907;28;19905;-77
2023/02/22 06:27:19;;;;;;;;;;;2.40;36.40;;;;;;5077363;28;19904;-79
2023/02/22 06:29:48;;;;;;;;;;;2.40;36.40;;;;;;5077598;28;19963;-78
2023/02/22 06:32:13;;;;;;;;;;;2.40;36.60;;;;;;5077378;28;20256;-79
2023/02/22 06:40:45;;;;;;;;;;;2.40;36.40;;;;;;5057532;28;19916;-76
2023/02/22 06:55:30;;;;;;;;;;;2.60;36.50;;;;;;5065557;28;19927;-78
2023/02/22 06:58:29;;;;;;;;;;;2.60;36.60;;;;;;5064470;28;19909;-78
2023/02/22 07:01:29;;;;;;;;;;;2.70;36.70;;;;;;5071815;28;19904;-78
2023/02/22 07:04:23;;;;;;;;;;;2.70;36.70;;;;;;5076466;28;20255;-78
2023/02/22 07:07:17;;;;;;;;;;;2.80;36.80;;;;;;5077073;28;19931;-77
2023/02/22 07:09:59;;;;;;;;;;;2.80;36.80;;;;;;5074409;28;19912;-77
2023/02/22 07:15:29;;;;;;;;;;;2.90;36.90;;;;;;5089765;28;20377;-78
2023/02/22 07:18:29;;;;;;;;;;;2.90;36.80;;;;;;5070144;28;19912;-78
2023/02/22 07:21:29;;;;;;;;;;;3.00;37.00;;;;;;5076900;28;19912;-79
2023/02/22 07:24:05;;;;;;;;;;;3.00;37.00;;;;;;5068861;28;19915;-78
2023/02/22 07:26:53;;;;;;;;;;;3.00;37.00;;;;;;5083753;28;20279;-73
2023/02/22 07:29:21;;;;;;;;;;;3.00;37.00;;;;;;5055499;28;20014;-73
2023/02/22 07:31:47;;;;;;;;;;;3.10;37.00;;;;;;5075956;28;20363;-73
2023/02/22 07:34:17;;;;;;;;;;;3.20;37.20;;;;;;5080240;28;19961;-73
2023/02/22 07:36:47;;;;;;;;;;;3.40;37.30;;;;;;5079510;28;19909;-73
2023/02/22 07:39:23;;;;;;;;;;;3.40;37.30;;;;;;5072926;28;20392;-72
2023/02/22 07:41:48;;;;;;;;;;;3.60;37.50;;;;;;5063764;28;19909;-71
2023/02/22 07:44:36;;;;;;;;;;;3.80;37.80;;;;;;5071796;28;20272;-92
2023/02/22 07:56:10;;;;;;;;;;;4.60;31.50;;;;;;5073043;28;19919;-84
2023/02/22 07:58:47;;;;;;;;;;;4.70;38.20;;;;;;5071955;28;20003;-78
2023/02/22 08:01:30;;;;;;;;;;;4.80;38.50;;;;;;5072672;28;19905;-78
2023/02/22 08:03:59;;;;;;;;;;;5.00;38.70;;;;;;5067598;28;19972;-78
2023/02/22 08:06:30;;;;;;;;;;;5.10;38.70;;;;;;5057200;28;19909;-78
2023/02/22 08:09:29;;;;;;;;;;;5.20;38.90;;;;;;5078413;28;19930;-78
2023/02/22 08:12:29;;;;;;;;;;;5.50;39.00;;;;;;5075471;28;19956;-81
2023/02/22 08:14:59;;;;;;;;;;;5.70;39.20;;;;;;5074068;28;19970;-81
2023/02/22 08:17:29;;;;;;;;;;;5.90;39.60;;;;;;5063796;28;19913;-75
2023/02/22 08:19:59;;;;;;;;;;;6.10;39.60;;;;;;5067816;28;19912;-75
2023/02/22 08:22:29;;;;;;;;;;;6.40;32.10;;;;;;5067427;28;19916;-75
2023/02/22 08:28:00;;;;;;;;;;;6.80;21.50;;;;;;5070622;28;19918;-76
2023/02/22 08:30:30;;;;;;;;;;;7.00;15.20;;;;;;5074272;28;19915;-76
2023/02/22 08:33:05;;;;;;;;;;;7.30;14.00;;;;;;5073527;28;19920;-75
2023/02/22 08:35:31;;;;;;;;;;;7.40;10.00;;;;;;5072344;28;19995;-76
2023/02/22 08:38:23;;;;;;;;;;;7.70;6.20;;;;;;5072231;28;19913;-75
2023/02/22 08:40:49;;;;;;;;;;;7.90;8.10;;;;;;5074860;28;19904;-75
2023/02/22 08:43:29;;;;;;;;;;;7.90;5.90;;;;;;5075222;28;19909;-79
2023/02/22 08:45:59;;;;;;;;;;;8.10;3.50;;;;;;5074968;28;19904;-80
2023/02/22 08:48:59;;;;;;;;;;;8.20;1.00;;;;;;5069308;28;20445;-79
2023/02/22 08:51:33;;;;;;;;;;;8.30;1.00;;;;;;5077924;28;19908;-79
2023/02/22 08:53:59;;;;;;;;;;;8.40;1.00;;;;;;5076127;28;19928;-80
2023/02/22 08:56:29;;;;;;;;;;;8.50;1.00;;;;;;5074559;28;19908;-76
2023/02/22 08:59:05;;;;;;;;;;;8.50;1.00;;;;;;5073798;28;19908;-75
2023/02/22 09:01:31;;;;;;;;;;;8.50;1.00;;;;;;5083291;28;19911;-76
2023/02/22 09:03:59;;;;;;;;;;;8.60;1.00;;;;;;5073950;28;19908;-75
2023/02/22 09:06:29;;;;;;;;;;;8.60;1.00;;;;;;5072591;28;19979;-75
2023/02/22 09:08:55;;;;;;;;;;;8.70;1.00;;;;;;5056071;28;19909;-75
2023/02/22 09:11:35;;;;;;;;;;;8.80;1.00;;;;;;5075508;28;19917;-75
2023/02/22 09:14:29;;;;;;;;;;;8.80;1.00;;;;;;5065250;28;19949;-75
2023/02/22 09:17:29;;;;;;;;;;;9.00;1.00;;;;;;5074459;28;19912;-76
2023/02/22 09:19:59;;;;;;;;;;;9.10;1.00;;;;;;5068760;28;20244;-76
2023/02/22 09:22:29;;;;;;;;;;;9.30;1.00;;;;;;5074718;28;19904;-76
2023/02/22 09:25:05;;;;;;;;;;;9.30;1.00;;;;;;5063870;28;19915;-76
2023/02/22 09:27:31;;;;;;;;;;;9.40;1.00;;;;;;5061640;28;20046;-79
2023/02/22 09:29:59;;;;;;;;;;;9.40;1.00;;;;;;5072644;28;20023;-74
2023/02/22 09:32:59;;;;;;;;;;;9.40;1.00;;;;;;5074224;28;19911;-75
2023/02/22 09:35:29;;;;;;;;;;;9.40;1.00;;;;;;5070102;28;19915;-76
2023/02/22 09:37:59;;;;;;;;;;;9.40;1.00;;;;;;5077663;28;19959;-75
2023/02/22 09:40:30;;;;;;;;;;;9.40;1.00;;;;;;5073190;28;19909;-75
2023/02/22 09:43:06;;;;;;;;;;;9.50;1.00;;;;;;5074061;28;19912;-76
2023/02/22 09:45:35;;;;;;;;;;;9.60;1.00;;;;;;5058539;28;19909;-76
2023/02/22 09:48:11;;;;;;;;;;;9.70;1.00;;;;;;5073947;28;19905;-75
2023/02/22 09:50:59;;;;;;;;;;;9.90;1.00;;;;;;5073454;28;19908;-76
2023/02/22 09:53:32;;;;;;;;;;;10.00;1.00;;;;;;5062515;28;19904;-76
2023/02/22 09:56:00;;;;;;;;;;;10.20;1.00;;;;;;5059271;28;19904;-75
2023/02/22 09:58:45;;;;;;;;;;;10.30;1.00;;;;;;5067137;28;19912;-76
2023/02/22 10:01:31;;;;;;;;;;;10.60;1.00;;;;;;5072081;28;19904;-75
2023/02/22 10:04:29;;;;;;;;;;;10.70;1.00;;;;;;5062582;28;19915;-75
2023/02/22 10:07:29;;;;;;;;;;;10.70;1.00;;;;;;5080848;28;19909;-75
2023/02/22 10:09:56;;;;;;;;;;;10.80;1.00;;;;;;5073762;28;19915;-75
2023/02/22 10:12:49;;;;;;;;;;;10.70;1.00;;;;;;5073694;28;19911;-78
2023/02/22 10:15:23;;;;;;;;;;;10.70;1.00;;;;;;4979023;28;20372;-79
2023/02/22 10:21:29;;;;;;;;;;;10.70;1.00;;;;;;5007134;28;20001;-79
2023/02/22 10:24:29;;;;;;;;;;;10.80;1.00;;;;;;5000289;28;19910;-79
2023/02/22 10:26:59;;;;;;;;;;;10.90;1.00;;;;;;4995527;28;19945;-79
2023/02/22 10:29:41;;;;;;;;;;;10.90;1.00;;;;;;4993506;28;20009;-76
2023/02/22 10:32:29;;;;;;;;;;;10.90;1.00;;;;;;5006296;28;20000;-75
2023/02/22 10:35:29;;;;;;;;;;;11.00;1.00;;;;;;5006416;28;19905;-76
2023/02/22 10:37:58;;;;;;;;;;;11.10;1.00;;;;;;5009900;28;19913;-76
2023/02/22 10:40:32;;;;;;;;;;;11.00;1.00;;;;;;4995486;28;20272;-75
2023/02/22 10:43:00;;;;;;;;;;;11.10;1.00;;;;;;5007779;28;20288;-79
2023/02/22 10:45:31;;;;;;;;;;;11.20;1.00;;;;;;5011234;28;20392;-79
2023/02/22 10:48:03;;;;;;;;;;;11.00;1.00;;;;;;5011285;28;19906;-80
2023/02/22 10:50:30;;;;;;;;;;;11.10;1.00;;;;;;5005724;28;19960;-79
2023/02/22 10:52:59;;;;;;;;;;;11.10;1.00;;;;;;5060529;28;19915;-79
2023/02/22 10:55:30;;;;;;;;;;;11.10;1.00;;;;;;5071318;28;19951;-80
2023/02/22 10:58:05;;;;;;;;;;;11.10;1.00;;;;;;5067658;28;20334;-77
2023/02/22 11:00:47;;;;;;;;;;;11.10;1.00;;;;;;5088105;28;19908;-76
2023/02/22 11:03:47;;;;;;;;;;;11.10;1.00;;;;;;5058701;28;19908;-76
2023/02/22 11:06:20;;;;;;;;;;;11.30;1.00;;;;;;5071765;28;19962;-76
2023/02/22 11:08:50;;;;;;;;;;;11.40;1.00;;;;;;5063823;28;19912;-76
2023/02/22 11:14:27;;;;;;;;;;;11.30;1.00;;;;;;5072809;28;20362;-76
2023/02/22 11:17:06;;;;;;;;;;;11.30;1.00;;;;;;5075783;28;19912;-77
2023/02/22 11:22:59;;;;;;;;;;;11.50;1.00;;;;;;5070901;28;19923;-76
2023/02/22 11:25:35;;;;;;;;;;;11.40;1.00;;;;;;5074616;28;19977;-76
2023/02/22 11:28:13;;;;;;;;;;;11.30;1.00;;;;;;5078223;28;19920;-80
2023/02/22 11:33:48;;;;;;;;;;;11.30;1.00;;;;;;5072654;28;19916;-80
2023/02/22 11:39:33;;;;;;;;;;;11.50;1.00;;;;;;5069668;28;19915;-80
2023/02/22 11:45:29;;;;;;;;;;;11.60;1.00;;;;;;5076420;28;19912;-76
2023/02/22 11:51:11;;;;;;;;;;;11.80;1.00;;;;;;5074273;28;19915;-76
2023/02/22 11:53:59;;;;;;;;;;;11.90;1.00;;;;;;5070113;28;20044;-76
2023/02/22 11:56:33;;;;;;;;;;;12.00;1.00;;;;;;5069394;28;19912;-76
2023/02/22 12:02:01;;;;;;;;;;;12.40;1.00;;;;;;5070157;28;19946;-95
2023/02/22 12:13:36;;;;;;;;;;;12.50;1.00;;;;;;5070791;28;19935;-84
2023/02/22 12:16:11;;;;;;;;;;;12.90;1.00;;;;;;5054060;28;19909;-84
2023/02/22 12:24:51;;;;;;;;;;;13.40;1.00;;;;;;5068058;28;19961;-84
2023/02/22 12:27:21;;;;;;;;;;;13.50;1.00;;;;;;5075437;28;20008;-83
2023/02/22 12:32:51;;;;;;;;;;;13.30;1.00;;;;;;5069696;28;19954;-84
2023/02/22 12:35:53;;;;;;;;;;;13.50;1.00;;;;;;5058299;28;19959;-84
2023/02/22 12:41:47;;;;;;;;;;;13.70;1.00;;;;;;5074070;28;19915;-83
2023/02/22 12:47:41;;;;;;;;;;;13.70;1.00;;;;;;5060809;28;19919;-84
2023/02/22 12:59:32;;;;;;;;;;;13.80;1.00;;;;;;5054962;28;19936;-87
2023/02/22 13:02:11;;;;;;;;;;;14.10;1.00;;;;;;5042006;28;19908;-87
2023/02/22 13:04:59;;;;;;;;;;;14.20;1.00;;;;;;5056837;28;20345;-85
2023/02/22 13:13:36;;;;;;;;;;;14.60;1.00;;;;;;5061929;28;19950;-85
2023/02/22 13:22:29;;;;;;;;;;;15.00;1.00;;;;;;5073761;28;19971;-83
2023/02/22 13:27:58;;;;;;;;;;;14.90;1.00;;;;;;5073242;28;20003;-83
2023/02/22 13:33:29;;;;;;;;;;;14.60;1.00;;;;;;5073869;28;19905;-82
2023/02/22 13:36:29;;;;;;;;;;;14.50;1.00;;;;;;5073323;28;19931;-83
2023/02/22 13:38:58;;;;;;;;;;;14.60;1.00;;;;;;5054997;28;19916;-82
2023/02/22 13:44:49;;;;;;;;;;;14.60;1.00;;;;;;5067691;28;20287;-82
2023/02/22 13:47:29;;;;;;;;;;;14.60;1.00;;;;;;5032510;28;19947;-85
2023/02/22 13:49:59;;;;;;;;;;;14.70;1.00;;;;;;5027690;28;20578;-84
2023/02/22 13:52:30;;;;;;;;;;;14.80;1.00;;;;;;5030578;28;20319;-84
2023/02/22 13:55:03;;;;;;;;;;;14.80;1.00;;;;;;5026150;28;19920;-84
2023/02/22 13:57:38;;;;;;;;;;;14.80;1.00;;;;;;5016338;28;20316;-84
2023/02/22 14:00:35;;;;;;;;;;;14.90;1.00;;;;;;5032558;28;19941;-84
2023/02/22 14:03:34;;;;;;;;;;;14.80;1.00;;;;;;5012973;28;19916;-84
2023/02/22 14:06:29;;;;;;;;;;;14.70;1.00;;;;;;5016834;28;19959;-84
2023/02/22 14:09:00;;;;;;;;;;;14.80;1.00;;;;;;5012936;28;19991;-83
2023/02/22 14:11:45;;;;;;;;;;;14.80;1.00;;;;;;5008370;28;19912;-84
2023/02/22 14:14:13;;;;;;;;;;;14.70;1.00;;;;;;5012468;28;19932;-84
2023/02/22 14:16:39;;;;;;;;;;;14.50;1.00;;;;;;4999927;28;19917;-85
2023/02/22 14:28:49;;;;;;;;;;;14.80;1.00;;;;;;5071443;28;19919;-85
2023/02/22 14:34:29;;;;;;;;;;;14.80;1.00;;;;;;5053880;28;19940;-85
2023/02/22 14:36:59;;;;;;;;;;;14.70;1.00;;;;;;5055215;28;19912;-85
2023/02/22 14:39:36;;;;;;;;;;;14.70;1.00;;;;;;5069462;28;19904;-86
2023/02/22 14:42:29;;;;;;;;;;;14.50;1.00;;;;;;5057035;28;19908;-85
2023/02/22 14:44:59;;;;;;;;;;;14.60;1.00;;;;;;5060011;28;19911;-83
2023/02/22 14:47:29;;;;;;;;;;;14.50;1.00;;;;;;5052617;28;19987;-83
2023/02/22 14:53:29;;;;;;;;;;;14.50;1.00;;;;;;5076674;28;20413;-85
2023/02/22 14:56:05;;;;;;;;;;;14.60;1.00;;;;;;5077675;28;19905;-85
2023/02/22 15:01:59;;;;;;;;;;;14.40;1.00;;;;;;5077552;28;19911;-84
2023/02/22 15:04:30;;;;;;;;;;;14.50;1.00;;;;;;5052629;28;19908;-73
2023/02/22 15:10:19;;;;;;;;;;;14.40;1.00;;;;;;5074167;28;19915;-80
2023/02/22 15:16:00;;;;;;;;;;;14.20;1.00;;;;;;5070717;28;19968;-76
2023/02/22 15:18:28;;;;;;;;;;;14.10;1.00;;;;;;5071505;28;20343;-77
2023/02/22 15:21:05;;;;;;;;;;;14.10;1.00;;;;;;5065348;28;19909;-75
2023/02/22 15:23:42;;;;;;;;;;;14.10;1.00;;;;;;5084896;28;19904;-75
2023/02/22 15:26:26;;;;;;;;;;;14.20;1.00;;;;;;5096942;28;19910;-75
2023/02/22 15:28:55;;;;;;;;;;;14.30;1.00;;;;;;5071968;28;19911;-75
2023/02/22 15:31:26;;;;;;;;;;;14.30;1.00;;;;;;5096811;28;19912;-75
2023/02/22 15:34:23;;;;;;;;;;;14.30;1.00;;;;;;5088303;28;19912;-75
2023/02/22 15:36:55;;;;;;;;;;;14.30;1.00;;;;;;5055977;28;20259;-75
2023/02/22 15:39:32;;;;;;;;;;;14.40;1.00;;;;;;5076349;28;19904;-75
2023/02/22 15:42:07;;;;;;;;;;;14.30;1.00;;;;;;5056441;28;20020;-75
2023/02/22 15:44:36;;;;;;;;;;;14.40;1.00;;;;;;5072881;28;19911;-75
2023/02/22 15:47:15;;;;;;;;;;;14.20;1.00;;;;;;5076607;28;19955;-75
2023/02/22 15:49:41;;;;;;;;;;;14.00;1.00;;;;;;5081819;28;19908;-75
2023/02/22 15:52:30;;;;;;;;;;;13.80;1.00;;;;;;5096753;28;20358;-75
2023/02/22 15:58:21;;;;;;;;;;;13.90;1.00;;;;;;5055999;28;19915;-75
2023/02/22 16:01:05;;;;;;;;;;;13.80;1.00;;;;;;5076973;28;20283;-76
2023/02/22 16:03:43;;;;;;;;;;;13.90;1.00;;;;;;5083143;28;19911;-75
2023/02/22 16:06:13;;;;;;;;;;;13.80;1.00;;;;;;5075973;28;20434;-75
2023/02/22 16:08:59;;;;;;;;;;;13.80;1.00;;;;;;5076058;28;19987;-75
2023/02/22 16:11:47;;;;;;;;;;;13.80;1.00;;;;;;5076103;28;19905;-75
2023/02/22 16:14:31;;;;;;;;;;;13.80;1.00;;;;;;5062960;28;20375;-75
2023/02/22 16:17:29;;;;;;;;;;;13.70;1.00;;;;;;5076075;28;19999;-75
2023/02/22 16:19:58;;;;;;;;;;;13.50;1.00;;;;;;5014770;28;19976;-75
2023/02/22 16:22:47;;;;;;;;;;;13.30;1.00;;;;;;5013782;28;20024;-75
2023/02/22 16:25:23;;;;;;;;;;;13.20;1.00;;;;;;5014165;28;20004;-75
2023/02/22 16:27:56;;;;;;;;;;;13.00;1.00;;;;;;5013387;28;19913;-75
2023/02/22 16:30:38;;;;;;;;;;;13.00;1.00;;;;;;5014028;28;20004;-75
2023/02/22 16:39:20;;;;;;;;;;;12.60;1.00;;;;;;5013513;28;20052;-79
2023/02/22 16:44:49;;;;;;;;;;;12.40;1.00;;;;;;5016952;28;19948;-79
2023/02/22 16:53:30;;;;;;;;;;;11.80;1.00;;;;;;5013863;28;19914;-86
2023/02/22 16:59:05;;;;;;;;;;;11.60;1.00;;;;;;5075427;28;20417;-86
2023/02/22 17:01:32;;;;;;;;;;;11.50;1.00;;;;;;5057699;28;19988;-86
2023/02/22 17:13:11;;;;;;;;;;;11.00;1.00;;;;;;5064231;28;19915;-85
2023/02/22 17:18:50;;;;;;;;;;;10.70;1.00;;;;;;5065143;28;20065;-91
2023/02/22 17:24:53;;;;;;;;;;;10.60;1.00;;;;;;5073987;28;20279;-82
2023/02/22 17:27:18;;;;;;;;;;;10.50;1.00;;;;;;5056437;28;20045;-84
2023/02/22 17:29:44;;;;;;;;;;;10.40;1.00;;;;;;5056491;28;19998;-88
2023/02/22 17:32:29;;;;;;;;;;;10.30;1.00;;;;;;5057576;28;19912;-86
2023/02/22 17:34:59;;;;;;;;;;;10.20;1.00;;;;;;5050110;28;19908;-87
2023/02/22 17:37:47;;;;;;;;;;;10.10;1.00;;;;;;5056924;28;19913;-86
2023/02/22 17:40:29;;;;;;;;;;;10.10;1.00;;;;;;5072380;28;19909;-88
2023/02/22 17:43:11;;;;;;;;;;;10.00;1.00;;;;;;5057013;28;19954;-89
2023/02/22 17:45:54;;;;;;;;;;;9.90;1.00;;;;;;5052525;28;19904;-87
2023/02/22 17:48:53;;;;;;;;;;;9.80;1.00;;;;;;5041220;28;20000;-89
2023/02/22 17:57:25;;;;;;;;;;;9.60;1.00;;;;;;5072045;28;19919;-89
2023/02/22 18:03:07;;;;;;;;;;;9.50;1.00;;;;;;5073967;28;19910;-87
2023/02/22 18:05:51;;;;;;;;;;;9.40;1.00;;;;;;5046174;28;19911;-86
2023/02/22 18:08:37;;;;;;;;;;;9.40;1.00;;;;;;5054574;28;20324;-87
2023/02/22 18:11:04;;;;;;;;;;;9.30;1.00;;;;;;5054970;28;19908;-87
2023/02/22 18:13:29;;;;;;;;;;;9.30;1.00;;;;;;5037665;28;19915;-87
2023/02/22 18:25:04;;;;;;;;;;;9.10;1.00;;;;;;5058580;28;20288;-88
2023/02/22 18:27:30;;;;;;;;;;;9.10;1.00;;;;;;5040512;28;19917;-87
2023/02/22 18:29:55;;;;;;;;;;;9.10;1.00;;;;;;5057398;28;20007;-87
2023/02/22 18:35:24;;;;;;;;;;;9.10;1.00;;;;;;5078083;28;19939;-89
2023/02/22 18:37:59;;;;;;;;;;;9.00;1.00;;;;;;5060447;28;19912;-90
2023/02/22 18:55:40;;;;;;;;;;;8.90;1.00;;;;;;5072427;28;19915;-88
2023/02/22 18:58:17;;;;;;;;;;;8.90;1.00;;;;;;5077576;28;19916;-87
2023/02/22 19:00:47;;;;;;;;;;;8.90;1.00;;;;;;5077590;28;19912;-74
2023/02/22 19:06:16;;;;;;;;;;;8.90;1.00;;;;;;5076891;28;19980;-82
2023/02/22 19:11:47;;;;;;;;;;;8.80;1.00;;;;;;5080896;28;19910;-82
2023/02/22 19:14:29;;;;;;;;;;;8.80;1.00;;;;;;5086065;28;19910;-82
2023/02/22 19:19:58;;;;;;;;;;;8.70;1.00;;;;;;5076930;28;20382;-74
2023/02/22 19:22:35;;;;;;;;;;;8.70;1.00;;;;;;5087887;28;19904;-74
2023/02/22 19:25:03;;;;;;;;;;;8.70;1.00;;;;;;5076802;28;19912;-74
2023/02/22 19:27:29;;;;;;;;;;;8.60;1.00;;;;;;5071438;28;20242;-74
2023/02/22 19:29:59;;;;;;;;;;;8.60;1.00;;;;;;5075348;28;19916;-75
2023/02/22 19:35:28;;;;;;;;;;;8.50;1.00;;;;;;5076303;28;19915;-74
2023/02/22 19:37:59;;;;;;;;;;;8.40;1.00;;;;;;5073273;28;19916;-74
2023/02/22 19:40:29;;;;;;;;;;;8.40;1.00;;;;;;5076176;28;19905;-74
2023/02/22 19:42:59;;;;;;;;;;;8.30;1.00;;;;;;5056612;28;19955;-74
2023/02/22 19:45:37;;;;;;;;;;;8.30;1.00;;;;;;5071667;28;19995;-75
2023/02/22 19:48:05;;;;;;;;;;;8.30;1.00;;;;;;5069564;28;19915;-74
2023/02/22 19:59:40;;;;;;;;;;;8.10;1.00;;;;;;5075569;28;19915;-78
2023/02/22 20:05:15;;;;;;;;;;;8.10;1.00;;;;;;5072718;28;19911;-74
2023/02/22 20:07:41;;;;;;;;;;;8.10;1.00;;;;;;5075877;28;19905;-74
2023/02/22 20:10:07;;;;;;;;;;;8.00;1.00;;;;;;5070981;28;19912;-74
2023/02/22 20:12:35;;;;;;;;;;;8.00;1.00;;;;;;5074401;28;19908;-75
2023/02/22 20:15:02;;;;;;;;;;;8.00;1.00;;;;;;5075954;28;19908;-74
2023/02/22 20:17:43;;;;;;;;;;;8.00;1.00;;;;;;5075771;28;19978;-74
2023/02/22 20:26:16;;;;;;;;;;;7.90;1.00;;;;;;5075405;28;19954;-78
2023/02/22 20:29:05;;;;;;;;;;;7.80;1.00;;;;;;5074108;28;19913;-78
2023/02/22 20:32:05;;;;;;;;;;;7.80;1.00;;;;;;5063739;28;19912;-78
2023/02/22 20:34:32;;;;;;;;;;;7.80;1.00;;;;;;5043301;28;19908;-78
2023/02/22 20:37:00;;;;;;;;;;;7.70;1.00;;;;;;5075576;28;19927;-74
2023/02/22 20:42:28;;;;;;;;;;;7.70;1.00;;;;;;5071407;28;19959;-74
2023/02/22 20:45:07;;;;;;;;;;;7.60;1.00;;;;;;5074988;28;19904;-74
2023/02/22 20:47:33;;;;;;;;;;;7.60;1.00;;;;;;5069801;28;19911;-74
2023/02/22 20:50:00;;;;;;;;;;;7.60;1.00;;;;;;5073354;28;19908;-74
2023/02/22 20:52:25;;;;;;;;;;;7.60;1.00;;;;;;5073165;28;19904;-74
2023/02/22 20:55:23;;;;;;;;;;;7.60;1.00;;;;;;5082389;28;19908;-74
2023/02/22 20:57:49;;;;;;;;;;;7.50;1.00;;;;;;5082462;28;19919;-74
2023/02/22 21:00:23;;;;;;;;;;;7.50;1.00;;;;;;5074105;28;20280;-74
2023/02/22 21:02:59;;;;;;;;;;;7.50;1.00;;;;;;5077766;28;20025;-74
2023/02/22 21:05:29;;;;;;;;;;;7.50;1.00;;;;;;5072090;28;19915;-74
2023/02/22 21:07:57;;;;;;;;;;;7.50;1.00;;;;;;5060973;28;19953;-74
2023/02/22 21:10:33;;;;;;;;;;;7.50;1.00;;;;;;5055510;28;20284;-74
2023/02/22 21:13:23;;;;;;;;;;;7.50;1.00;;;;;;5070688;28;20031;-74
2023/02/22 21:16:17;;;;;;;;;;;7.60;1.00;;;;;;5070672;28;19954;-75
2023/02/22 21:19:05;;;;;;;;;;;7.60;1.00;;;;;;5073255;28;19912;-74
2023/02/22 21:21:47;;;;;;;;;;;7.50;1.00;;;;;;5074689;28;19915;-74
2023/02/22 21:24:25;;;;;;;;;;;7.50;1.00;;;;;;5064176;28;19904;-75
2023/02/22 21:26:59;;;;;;;;;;;7.50;1.00;;;;;;5075032;28;20042;-74
2023/02/22 21:29:26;;;;;;;;;;;7.60;1.00;;;;;;5074989;28;19912;-75
2023/02/22 21:31:52;;;;;;;;;;;7.60;1.00;;;;;;5069479;28;19908;-74
2023/02/22 21:34:24;;;;;;;;;;;7.60;1.00;;;;;;5069431;28;20020;-74
2023/02/22 21:36:53;;;;;;;;;;;7.60;1.00;;;;;;5074289;28;19986;-75
2023/02/22 21:39:27;;;;;;;;;;;7.70;1.00;;;;;;5074497;28;20034;-75
2023/02/22 21:42:07;;;;;;;;;;;7.70;1.00;;;;;;5074095;28;19908;-74
2023/02/22 21:44:32;;;;;;;;;;;7.70;1.00;;;;;;5067838;28;19944;-75
2023/02/22 21:47:35;;;;;;;;;;;7.70;1.00;;;;;;5047845;28;19990;-74
2023/02/22 21:50:01;;;;;;;;;;;7.70;1.00;;;;;;5080954;28;19908;-74
2023/02/22 21:52:26;;;;;;;;;;;7.70;1.00;;;;;;5077844;28;20256;-74
2023/02/22 21:55:12;;;;;;;;;;;7.70;1.00;;;;;;5086406;28;20034;-75
2023/02/22 21:57:41;;;;;;;;;;;7.80;1.00;;;;;;5069432;28;19963;-74
2023/02/22 22:00:28;;;;;;;;;;;7.80;1.00;;;;;;5065692;28;19962;-74
2023/02/22 22:03:08;;;;;;;;;;;7.80;1.00;;;;;;5069604;28;19915;-75
2023/02/22 22:05:37;;;;;;;;;;;7.80;1.00;;;;;;5070054;28;19912;-75
2023/02/22 22:08:06;;;;;;;;;;;7.80;1.00;;;;;;5074384;28;19908;-74
2023/02/22 22:10:32;;;;;;;;;;;7.70;1.00;;;;;;5055818;28;19911;-74